Time;durP1;ratioP1;P1;durP2;ratioP2;P2;SDS_P1;SDS_P2;PMS_P1;PMS_P2;Temp;Humidity;BMP_temperature;BMP_pressure;BME280_temperature;BME280_humidity;BME280_pressure;Samples;Min_cycle;Max_cycle;Signal;HPM_P1;HPM_P2
2022/10/12 00:01:28;;;;;;;11.80;7.03;;;6.60;99.90;;;;;;5076161;28;20043;-79
2022/10/12 00:03:54;;;;;;;11.80;6.47;;;6.60;99.90;;;;;;5076203;28;20053;-78
2022/10/12 00:06:22;;;;;;;11.93;5.97;;;6.60;99.90;;;;;;5076087;28;20045;-79
2022/10/12 00:08:50;;;;;;;9.70;6.50;;;6.60;99.90;;;;;;5076087;28;20048;-78
2022/10/12 00:11:19;;;;;;;8.65;5.82;;;6.60;99.90;;;;;;5076198;28;20396;-79
2022/10/12 00:13:45;;;;;;;9.93;6.43;;;6.60;99.90;;;;;;5075951;28;20058;-79
2022/10/12 00:16:12;;;;;;;9.15;5.93;;;6.60;99.90;;;;;;5075901;28;20561;-78
2022/10/12 00:18:38;;;;;;;11.45;6.38;;;6.60;99.90;;;;;;5075887;28;20045;-78
2022/10/12 00:21:13;;;;;;;11.70;5.93;;;6.60;99.90;;;;;;5075865;28;20472;-78
2022/10/12 00:23:39;;;;;;;9.77;6.05;;;6.60;99.90;;;;;;5075852;28;20044;-78
2022/10/12 00:26:08;;;;;;;11.82;5.90;;;6.60;99.90;;;;;;5074637;28;20048;-79
2022/10/12 00:28:34;;;;;;;10.80;5.82;;;6.60;99.90;;;;;;5074686;28;20480;-77
2022/10/12 00:31:00;;;;;;;10.82;5.78;;;6.60;99.90;;;;;;5075623;28;20043;-78
2022/10/12 00:33:29;;;;;;;11.90;5.83;;;6.60;99.90;;;;;;5075679;28;20036;-79
2022/10/12 00:35:54;;;;;;;11.00;5.85;;;6.60;99.90;;;;;;5075588;28;20040;-79
2022/10/12 00:38:21;;;;;;;9.23;5.93;;;6.60;99.90;;;;;;5075572;28;20093;-78
2022/10/12 00:40:47;;;;;;;11.50;5.32;;;6.60;99.90;;;;;;5075422;28;20052;-77
2022/10/12 00:43:36;;;;;;;12.80;5.50;;;6.60;99.90;;;;;;5075735;28;20052;-77
2022/10/12 00:46:08;;;;;;;8.82;5.75;;;6.60;99.90;;;;;;5075836;28;20445;-78
2022/10/12 00:48:34;;;;;;;7.40;5.43;;;6.60;99.90;;;;;;5075469;28;20396;-79
2022/10/12 00:51:01;;;;;;;9.37;5.40;;;6.60;99.90;;;;;;5074864;28;20408;-77
2022/10/12 00:53:30;;;;;;;;;;;6.50;99.90;;;;;;5075900;28;20408;-79
2022/10/12 00:55:59;;;;;;;10.88;4.85;;;6.50;99.90;;;;;;5074972;28;20368;-79
2022/10/12 00:58:30;;;;;;;6.95;4.63;;;6.50;99.90;;;;;;5075079;28;20055;-79
2022/10/12 01:00:56;;;;;;;7.05;4.35;;;6.40;99.90;;;;;;5074841;28;20515;-78
2022/10/12 01:03:22;;;;;;;7.10;4.93;;;6.40;99.90;;;;;;5075011;28;20052;-78
2022/10/12 01:05:47;;;;;;;8.65;4.43;;;6.40;99.90;;;;;;5074969;28;20131;-78
2022/10/12 01:08:13;;;;;;;9.15;5.90;;;6.30;99.90;;;;;;5057349;28;20066;-78
2022/10/12 01:10:39;;;;;;;11.10;5.53;;;6.30;99.90;;;;;;5074638;28;20040;-78
2022/10/12 01:13:05;;;;;;;11.90;5.13;;;6.30;99.90;;;;;;5074416;28;20067;-77
2022/10/12 01:15:38;;;;;;;8.57;4.90;;;6.20;99.90;;;;;;5074959;28;20446;-77
2022/10/12 01:18:36;;;;;;;12.13;5.68;;;6.20;99.90;;;;;;5074820;28;20037;-78
2022/10/12 01:21:16;;;;;;;6.88;4.63;;;6.20;99.90;;;;;;5074719;28;20044;-78
2022/10/12 01:23:59;;;;;;;11.75;5.13;;;6.20;99.90;;;;;;5074712;28;20047;-79
2022/10/12 01:26:33;;;;;;;9.88;4.68;;;6.10;99.90;;;;;;5074786;28;20318;-78
2022/10/12 01:29:12;;;;;;;10.75;5.30;;;6.10;99.90;;;;;;5074299;28;20049;-78
2022/10/12 01:31:41;;;;;;;10.00;4.97;;;6.00;99.90;;;;;;5074488;28;20041;-78
2022/10/12 01:34:17;;;;;;;9.20;5.25;;;6.00;99.90;;;;;;5074386;28;20060;-79
2022/10/12 01:36:47;;;;;;;9.73;5.70;;;6.00;99.90;;;;;;5074528;28;20094;-77
2022/10/12 01:39:28;;;;;;;16.35;6.30;;;6.00;99.90;;;;;;5074333;28;20086;-77
2022/10/12 01:41:57;;;;;;;11.15;5.57;;;5.90;99.90;;;;;;5074282;28;20044;-79
2022/10/12 01:44:25;;;;;;;13.82;6.78;;;5.90;99.90;;;;;;5074480;28;20052;-80
2022/10/12 01:46:52;;;;;;;13.52;6.47;;;5.90;99.90;;;;;;5074322;28;20427;-77
2022/10/12 01:49:22;;;;;;;14.98;7.00;;;5.90;99.90;;;;;;5074208;28;20051;-78
2022/10/12 01:52:15;;;;;;;12.50;6.47;;;5.90;99.90;;;;;;5073981;28;20052;-78
2022/10/12 01:54:56;;;;;;;11.30;5.85;;;5.90;99.90;;;;;;5074185;28;20052;-78
2022/10/12 01:57:45;;;;;;;14.32;5.78;;;5.80;99.90;;;;;;5074020;28;20048;-77
2022/10/12 02:00:14;;;;;;;13.63;6.13;;;5.80;99.90;;;;;;5074010;28;20045;-77
2022/10/12 02:02:58;;;;;;;11.55;5.35;;;5.80;99.90;;;;;;5072776;28;20043;-77
2022/10/12 02:05:45;;;;;;;9.45;5.22;;;5.80;99.90;;;;;;5073877;28;20040;-79
2022/10/12 02:08:32;;;;;;;9.50;5.13;;;5.80;99.90;;;;;;5073917;28;20127;-79
2022/10/12 02:11:11;;;;;;;10.70;5.80;;;5.90;99.90;;;;;;5074222;28;20036;-79
2022/10/12 02:13:48;;;;;;;11.55;5.35;;;5.90;99.90;;;;;;5073891;28;20044;-77
2022/10/12 02:16:18;;;;;;;7.90;5.63;;;5.90;99.90;;;;;;5073885;28;20105;-78
2022/10/12 02:18:48;;;;;;;10.75;4.90;;;5.90;99.90;;;;;;5072780;28;20047;-77
2022/10/12 02:21:17;;;;;;;12.23;4.78;;;5.90;99.90;;;;;;5073728;28;20520;-79
2022/10/12 02:23:46;;;;;;;8.38;4.32;;;5.80;99.90;;;;;;5073608;28;20053;-79
2022/10/12 02:26:14;;;;;;;8.35;4.18;;;5.80;99.90;;;;;;5072465;28;20044;-77
2022/10/12 02:28:43;;;;;;;8.93;4.68;;;5.90;99.90;;;;;;5073533;28;20502;-77
2022/10/12 02:31:23;;;;;;;8.02;4.55;;;5.90;99.90;;;;;;5073685;28;20464;-77
2022/10/12 02:34:10;;;;;;;8.93;4.82;;;5.90;99.90;;;;;;5073504;28;20094;-78
2022/10/12 02:36:50;;;;;;;10.63;4.65;;;5.90;99.90;;;;;;5073632;28;20080;-79
2022/10/12 02:39:22;;;;;;;7.72;4.28;;;5.90;99.90;;;;;;5073684;28;20037;-79
2022/10/12 02:41:51;;;;;;;12.82;4.32;;;5.90;99.90;;;;;;5073341;28;20392;-78
2022/10/12 02:44:22;;;;;;;6.85;4.20;;;6.60;99.90;;;;;;5073423;28;20407;-78
2022/10/12 02:46:50;;;;;;;8.13;4.13;;;5.90;99.90;;;;;;5073966;28;20131;-79
2022/10/12 02:49:17;;;;;;;6.07;3.92;;;5.90;99.90;;;;;;5073528;28;20039;-76
2022/10/12 02:51:44;;;;;;;7.18;3.92;;;5.90;99.90;;;;;;5073408;28;20039;-78
2022/10/12 02:54:11;;;;;;;7.10;3.95;;;5.90;99.90;;;;;;5073484;28;20434;-77
2022/10/12 02:56:44;;;;;;;16.42;4.50;;;5.90;99.90;;;;;;5073296;28;20045;-78
2022/10/12 02:59:11;;;;;;;6.65;4.45;;;5.90;99.90;;;;;;5073377;28;20404;-78
2022/10/12 03:01:37;;;;;;;7.50;3.95;;;5.90;99.90;;;;;;5073368;28;20040;-79
2022/10/12 03:04:02;;;;;;;9.05;4.13;;;5.90;99.90;;;;;;5073611;28;20059;-80
2022/10/12 03:06:28;;;;;;;9.50;4.18;;;5.90;99.90;;;;;;5073399;28;20044;-79
2022/10/12 03:08:55;;;;;;;9.02;4.32;;;5.90;99.90;;;;;;5073209;28;20384;-79
2022/10/12 03:11:22;;;;;;;9.30;4.63;;;5.90;99.90;;;;;;5073118;28;20051;-78
2022/10/12 03:13:51;;;;;;;13.90;5.40;;;5.90;99.90;;;;;;5073627;28;20047;-78
2022/10/12 03:16:16;;;;;;;9.93;4.60;;;5.90;99.90;;;;;;5073191;28;20040;-77
2022/10/12 03:18:42;;;;;;;7.07;4.20;;;5.90;99.90;;;;;;5073225;28;20041;-77
2022/10/12 03:21:08;;;;;;;8.52;4.60;;;5.90;99.90;;;;;;5073178;28;20045;-77
2022/10/12 03:23:34;;;;;;;11.90;4.00;;;5.90;99.90;;;;;;5073060;28;20083;-76
2022/10/12 03:25:59;;;;;;;14.38;4.32;;;5.80;99.90;;;;;;5073142;28;20435;-78
2022/10/12 03:28:25;;;;;;;7.00;5.00;;;5.80;99.90;;;;;;5073120;28;20047;-79
2022/10/12 03:30:51;;;;;;;8.10;3.67;;;5.80;99.90;;;;;;5073033;28;20044;-76
2022/10/12 03:33:16;;;;;;;11.98;4.18;;;5.80;99.90;;;;;;5073068;28;20048;-79
2022/10/12 03:35:44;;;;;;;9.48;4.03;;;5.70;99.90;;;;;;5075167;28;20044;-76
2022/10/12 03:38:09;;;;;;;5.95;4.15;;;5.70;99.90;;;;;;5076811;28;20087;-79
2022/10/12 03:40:36;;;;;;;12.07;4.93;;;5.70;99.90;;;;;;5076391;28;20076;-77
2022/10/12 03:43:01;;;;;;;6.28;4.28;;;5.70;99.90;;;;;;5076484;28;20044;-77
2022/10/12 03:45:27;;;;;;;8.60;3.78;;;5.60;99.90;;;;;;5076597;28;20451;-79
2022/10/12 03:47:53;;;;;;;11.50;4.30;;;5.60;99.90;;;;;;5076763;28;20054;-78
2022/10/12 03:50:18;;;;;;;7.55;4.78;;;5.60;99.90;;;;;;5076408;28;20044;-79
2022/10/12 03:52:44;;;;;;;10.60;4.55;;;5.60;99.90;;;;;;5076354;28;20102;-77
2022/10/12 03:55:09;;;;;;;9.02;4.57;;;5.50;99.90;;;;;;5076336;28;20501;-77
2022/10/12 03:57:35;;;;;;;8.82;4.25;;;5.50;99.90;;;;;;5076343;28;20044;-77
2022/10/12 04:00:00;;;;;;;7.82;3.90;;;5.40;99.90;;;;;;5076287;28;20446;-78
2022/10/12 04:02:26;;;;;;;10.38;3.88;;;5.40;99.90;;;;;;5075102;28;20120;-79
2022/10/12 04:04:53;;;;;;;7.10;3.92;;;5.40;99.90;;;;;;5076217;28;20044;-78
2022/10/12 04:07:18;;;;;;;7.70;4.13;;;5.40;99.90;;;;;;5076275;28;20045;-78
2022/10/12 04:09:44;;;;;;;10.50;4.18;;;5.40;99.90;;;;;;5076167;28;20484;-78
2022/10/12 04:12:09;;;;;;;12.95;5.50;;;5.30;99.90;;;;;;5076035;28;20476;-78
2022/10/12 04:14:35;;;;;;;7.15;4.05;;;5.30;99.90;;;;;;5076109;28;20048;-80
2022/10/12 04:17:02;;;;;;;7.30;4.55;;;5.60;99.90;;;;;;5076027;28;20044;-78
2022/10/12 04:19:28;;;;;;;7.30;4.18;;;5.30;99.90;;;;;;5076033;28;20049;-78
2022/10/12 04:21:53;;;;;;;5.50;3.72;;;5.30;99.90;;;;;;5075935;28;20373;-78
2022/10/12 04:24:19;;;;;;;7.43;4.45;;;5.20;99.90;;;;;;5075761;28;20149;-80
2022/10/12 04:26:45;;;;;;;9.73;4.13;;;5.20;99.90;;;;;;5075808;28;20075;-77
2022/10/12 04:29:14;;;;;;;10.20;4.47;;;5.30;99.90;;;;;;5076124;28;20048;-79
2022/10/12 04:31:40;;;;;;;7.20;4.30;;;5.20;99.90;;;;;;5074692;28;20055;-78
2022/10/12 04:34:07;;;;;;;9.20;4.23;;;5.20;99.90;;;;;;5075774;28;20084;-79
2022/10/12 04:36:33;;;;;;;;;;;5.20;99.90;;;;;;5076062;28;20454;-80
2022/10/12 04:38:59;;;;;;;9.50;4.40;;;5.20;99.90;;;;;;5075531;28;20011;-78
2022/10/12 04:41:24;;;;;;;7.70;4.00;;;5.20;99.90;;;;;;5075510;28;20052;-77
2022/10/12 04:43:52;;;;;;;8.68;4.07;;;5.10;99.90;;;;;;5073856;28;20139;-79
2022/10/12 04:46:18;;;;;;;7.25;4.03;;;5.20;99.90;;;;;;5073250;28;20045;-77
2022/10/12 04:48:43;;;;;;;7.63;3.92;;;5.20;99.90;;;;;;5075363;28;20434;-79
2022/10/12 04:51:09;;;;;;;10.25;4.30;;;5.10;99.90;;;;;;5075226;28;20132;-78
2022/10/12 04:53:35;;;;;;;11.25;5.00;;;5.10;99.90;;;;;;5075225;28;20037;-77
2022/10/12 04:56:04;;;;;;;7.00;4.65;;;5.10;99.90;;;;;;5075235;28;20045;-77
2022/10/12 04:58:30;;;;;;;8.80;4.15;;;5.10;99.90;;;;;;5073974;28;20051;-77
2022/10/12 05:00:55;;;;;;;6.15;4.55;;;5.10;99.90;;;;;;5075235;28;20480;-77
2022/10/12 05:03:21;;;;;;;9.05;4.40;;;5.10;99.90;;;;;;5075001;28;20047;-78
2022/10/12 05:05:47;;;;;;;9.18;4.68;;;5.00;99.90;;;;;;5075198;28;20052;-79
2022/10/12 05:08:12;;;;;;;7.32;4.20;;;5.00;99.90;;;;;;5074950;28;20047;-79
2022/10/12 05:10:39;;;;;;;9.50;4.50;;;5.00;99.90;;;;;;5075301;28;20037;-78
2022/10/12 05:13:05;;;;;;;8.98;4.38;;;5.00;99.90;;;;;;5074934;28;20121;-80
2022/10/12 05:15:31;;;;;;;8.02;4.18;;;5.00;99.90;;;;;;5075147;28;20491;-79
2022/10/12 05:17:56;;;;;;;9.07;4.63;;;5.00;99.90;;;;;;5074777;28;20534;-80
2022/10/12 05:20:22;;;;;;;9.75;4.45;;;5.00;99.90;;;;;;5074718;28;20110;-80
2022/10/12 05:22:47;;;;;;;7.97;4.30;;;4.90;99.90;;;;;;5074682;28;20090;-80
2022/10/12 05:25:13;;;;;;;6.20;3.85;;;4.90;99.90;;;;;;5074691;28;20079;-82
2022/10/12 05:27:39;;;;;;;6.32;4.03;;;4.90;99.90;;;;;;5074626;28;20043;-81
2022/10/12 05:30:05;;;;;;;8.88;4.65;;;4.90;99.90;;;;;;5074574;28;20044;-80
2022/10/12 05:32:31;;;;;;;9.63;4.30;;;4.80;99.90;;;;;;5074548;28;20388;-79
2022/10/12 05:34:57;;;;;;;12.63;5.25;;;4.80;99.90;;;;;;5074529;28;20050;-78
2022/10/12 05:37:22;;;;;;;6.97;4.22;;;4.80;99.90;;;;;;5074532;28;20036;-80
2022/10/12 05:39:48;;;;;;;8.63;4.22;;;4.80;99.90;;;;;;5073572;28;20040;-79
2022/10/12 05:42:15;;;;;;;7.22;4.40;;;4.80;99.90;;;;;;5074424;28;20040;-82
2022/10/12 05:44:40;;;;;;;10.65;5.28;;;4.80;99.90;;;;;;5074381;28;20052;-79
2022/10/12 05:47:06;;;;;;;8.60;4.13;;;4.80;99.90;;;;;;5074216;28;20058;-79
2022/10/12 05:49:32;;;;;;;9.90;4.45;;;4.70;99.90;;;;;;5073217;28;20048;-80
2022/10/12 05:51:57;;;;;;;10.75;4.85;;;4.70;99.90;;;;;;5074029;28;20033;-81
2022/10/12 05:54:24;;;;;;;8.67;4.60;;;4.60;99.90;;;;;;5074092;28;20094;-79
2022/10/12 05:56:49;;;;;;;9.40;4.57;;;4.60;99.90;;;;;;5073948;28;20048;-81
2022/10/12 05:59:15;;;;;;;11.93;4.45;;;4.50;99.90;;;;;;5073811;28;20044;-80
2022/10/12 06:01:40;;;;;;;9.75;4.53;;;4.50;99.90;;;;;;5074106;28;20449;-80
2022/10/12 06:04:06;;;;;;;8.07;4.10;;;4.50;99.90;;;;;;5074059;28;20046;-80
2022/10/12 06:06:31;;;;;;;10.32;4.78;;;4.50;99.90;;;;;;5074090;28;20476;-81
2022/10/12 06:08:57;;;;;;;10.45;4.07;;;4.50;99.90;;;;;;5073035;28;20044;-81
2022/10/12 06:11:22;;;;;;;12.00;5.53;;;4.50;99.90;;;;;;5073756;28;20040;-83
2022/10/12 06:13:48;;;;;;;8.43;4.40;;;4.50;99.90;;;;;;5072952;28;20043;-82
2022/10/12 06:16:14;;;;;;;8.43;5.00;;;4.50;99.90;;;;;;5072852;28;20503;-82
2022/10/12 06:18:39;;;;;;;10.18;4.85;;;4.50;99.90;;;;;;5072569;28;20051;-78
2022/10/12 06:21:05;;;;;;;12.38;4.90;;;4.50;99.90;;;;;;5073821;28;20144;-82
2022/10/12 06:23:30;;;;;;;11.18;4.65;;;4.40;99.90;;;;;;5073287;28;20044;-80
2022/10/12 06:25:56;;;;;;;11.50;5.00;;;4.50;99.90;;;;;;5073435;28;20411;-82
2022/10/12 06:28:22;;;;;;;7.45;4.45;;;4.40;99.90;;;;;;5073747;28;20071;-82
2022/10/12 06:30:58;;;;;;;11.52;5.32;;;4.50;99.90;;;;;;5073579;28;20036;-82
2022/10/12 06:33:25;;;;;;;11.13;5.28;;;4.50;99.90;;;;;;5073274;28;20045;-76
2022/10/12 06:35:50;;;;;;;9.13;4.78;;;4.60;99.90;;;;;;5073495;28;20048;-81
2022/10/12 06:38:16;;;;;;;12.77;6.00;;;4.50;99.90;;;;;;5073548;28;20032;-79
2022/10/12 06:40:42;;;;;;;9.73;5.22;;;4.60;99.90;;;;;;5073569;28;20090;-81
2022/10/12 06:43:08;;;;;;;10.70;5.25;;;4.60;99.90;;;;;;5073725;28;20047;-83
2022/10/12 06:45:34;;;;;;;13.52;5.70;;;4.70;99.90;;;;;;5072351;28;20056;-79
2022/10/12 06:47:59;;;;;;;10.18;6.03;;;4.70;99.90;;;;;;5073601;28;20049;-79
2022/10/12 06:50:25;;;;;;;8.65;5.45;;;4.70;99.90;;;;;;5073426;28;20045;-80
2022/10/12 06:52:51;;;;;;;15.85;5.97;;;4.80;99.90;;;;;;5073398;28;20399;-80
2022/10/12 06:55:18;;;;;;;12.27;6.25;;;4.80;99.90;;;;;;5073507;28;20393;-80
2022/10/12 06:57:43;;;;;;;9.43;5.88;;;4.90;99.90;;;;;;5072638;28;20059;-86
2022/10/12 07:00:10;;;;;;;14.40;6.57;;;4.90;99.90;;;;;;5072698;28;20500;-84
2022/10/12 07:02:36;;;;;;;10.38;6.78;;;4.90;99.90;;;;;;5073306;28;20128;-82
2022/10/12 07:05:01;;;;;;;11.30;6.43;;;5.00;99.90;;;;;;5073073;28;20131;-83
2022/10/12 07:07:31;;;;;;;11.32;6.40;;;5.00;99.90;;;;;;5055704;28;20045;-84
2022/10/12 07:09:57;;;;;;;20.77;7.07;;;5.10;99.90;;;;;;5074687;28;20152;-86
2022/10/12 07:12:22;;;;;;;18.38;7.38;;;5.20;99.90;;;;;;5077822;28;20124;-82
2022/10/12 07:14:48;;;;;;;14.05;7.53;;;5.20;99.90;;;;;;5077400;28;20048;-83
2022/10/12 07:17:14;;;;;;;16.30;7.20;;;5.30;99.90;;;;;;5059793;28;20127;-92
2022/10/12 07:19:39;;;;;;;12.82;7.10;;;5.40;99.90;;;;;;5077185;28;20431;-81
2022/10/12 07:22:05;;;;;;;16.83;8.70;;;5.50;99.90;;;;;;5077002;28;20047;-84
2022/10/12 07:24:35;;;;;;;12.82;6.95;;;5.60;99.90;;;;;;5077398;28;20040;-84
2022/10/12 07:27:09;;;;;;;14.40;5.95;;;5.70;99.90;;;;;;5076101;28;20060;-82
2022/10/12 07:29:35;;;;;;;14.20;6.97;;;5.80;99.90;;;;;;5076783;28;20403;-82
2022/10/12 07:32:01;;;;;;;12.35;5.45;;;5.90;99.90;;;;;;5076939;28;20044;-85
2022/10/12 07:34:27;;;;;;;20.80;8.25;;;6.00;99.90;;;;;;5075609;28;20051;-81
2022/10/12 07:36:55;;;;;;;10.45;5.78;;;6.10;99.90;;;;;;5077069;28;20048;-84
2022/10/12 07:39:22;;;;;;;11.90;6.10;;;6.20;99.90;;;;;;5076004;28;20052;-85
2022/10/12 07:41:51;;;;;;;14.07;5.95;;;6.30;99.90;;;;;;5076687;28;20036;-80
2022/10/12 07:44:18;;;;;;;10.13;6.50;;;6.40;99.90;;;;;;5075332;28;20465;-81
2022/10/12 07:46:44;;;;;;;14.18;6.05;;;6.50;99.90;;;;;;5076560;28;20135;-80
2022/10/12 07:49:14;;;;;;;16.13;6.20;;;6.60;99.90;;;;;;5076443;28;20132;-81
2022/10/12 07:51:41;;;;;;;14.25;6.35;;;6.60;99.90;;;;;;5076434;28;20036;-80
2022/10/12 07:54:07;;;;;;;13.27;5.57;;;6.70;99.90;;;;;;5076573;28;20523;-81
2022/10/12 07:56:33;;;;;;;13.83;5.93;;;6.70;99.90;;;;;;5076489;28;20051;-80
2022/10/12 07:58:59;;;;;;;13.90;6.25;;;6.80;99.90;;;;;;5076069;28;20817;-83
2022/10/12 08:01:28;;;;;;;12.75;5.72;;;6.80;99.90;;;;;;5075175;28;20076;-81
2022/10/12 08:03:55;;;;;;;10.88;5.78;;;6.80;99.90;;;;;;5076416;28;20091;-82
2022/10/12 08:06:23;;;;;;;15.55;6.93;;;7.00;99.90;;;;;;5075960;28;20561;-84
2022/10/12 08:08:49;;;;;;;11.75;6.13;;;7.00;99.90;;;;;;5075578;28;20075;-82
2022/10/12 08:11:15;;;;;;;14.30;5.68;;;7.10;99.90;;;;;;5074068;28;20480;-81
2022/10/12 08:13:41;;;;;;;12.73;5.63;;;7.30;99.90;;;;;;5076051;28;20080;-81
2022/10/12 08:16:12;;;;;;;11.90;5.88;;;7.40;99.90;;;;;;5075734;28;20097;-79
2022/10/12 08:18:39;;;;;;;16.02;6.32;;;7.60;99.90;;;;;;5075876;28;20037;-77
2022/10/12 08:21:05;;;;;;;16.30;6.00;;;7.80;99.90;;;;;;5075683;28;20047;-82
2022/10/12 08:23:33;;;;;;;10.43;5.50;;;7.90;99.90;;;;;;5075864;28;20055;-79
2022/10/12 08:25:58;;;;;;;22.02;5.35;;;8.00;99.90;;;;;;5075500;28;20428;-82
2022/10/12 08:28:24;;;;;;;11.85;5.20;;;8.20;99.90;;;;;;5075342;28;20055;-78
2022/10/12 08:30:50;;;;;;;12.45;5.45;;;8.30;99.90;;;;;;5075397;28;20044;-80
2022/10/12 08:33:17;;;;;;;13.63;5.50;;;8.40;99.90;;;;;;5075711;28;20431;-81
2022/10/12 08:35:44;;;;;;;11.07;5.72;;;8.50;99.90;;;;;;5075408;28;20404;-84
2022/10/12 08:38:11;;;;;;;12.40;6.05;;;8.60;99.90;;;;;;5075364;28;20549;-83
2022/10/12 08:40:55;;;;;;;;;;;8.70;99.90;;;;;;5076316;28;20472;-77
2022/10/12 08:43:33;;;;;;;16.33;4.95;;;8.80;99.90;;;;;;5075091;28;20378;-82
2022/10/12 08:45:59;;;;;;;;;;;8.80;99.90;;;;;;5075886;28;20060;-83
2022/10/12 08:48:39;;;;;;;12.93;5.05;;;9.10;99.90;;;;;;5075391;28;19920;-79
2022/10/12 08:51:09;;;;;;;12.60;4.90;;;9.00;99.90;;;;;;5075163;28;20519;-77
2022/10/12 08:53:55;;;;;;;13.52;6.00;;;9.10;99.90;;;;;;5075660;28;20396;-77
2022/10/12 08:56:21;;;;;;;15.68;5.10;;;9.10;99.90;;;;;;5075750;28;20392;-79
2022/10/12 08:58:49;;;;;;;15.63;5.77;;;9.10;99.90;;;;;;5075152;28;20083;-78
2022/10/12 09:01:20;;;;;;;14.45;5.55;;;9.30;99.90;;;;;;5075005;28;20048;-79
2022/10/12 09:04:13;;;;;;;11.95;5.88;;;9.30;99.90;;;;;;5075073;28;20048;-85
2022/10/12 09:06:55;;;;;;;10.52;5.05;;;9.40;99.90;;;;;;5074047;28;20041;-79
2022/10/12 09:09:42;;;;;;;10.32;5.18;;;9.50;99.90;;;;;;5074598;28;20519;-81
2022/10/12 09:12:41;;;;;;;15.15;5.70;;;9.60;99.90;;;;;;5074766;28;20540;-79
2022/10/12 09:15:18;;;;;;;12.57;5.40;;;9.70;99.90;;;;;;5074908;28;20045;-82
2022/10/12 09:17:55;;;;;;;10.98;4.82;;;9.80;99.90;;;;;;5074831;28;20053;-84
2022/10/12 09:20:26;;;;;;;13.52;5.45;;;10.60;99.90;;;;;;5074203;28;20435;-83
2022/10/12 09:22:57;;;;;;;14.38;5.20;;;9.90;99.90;;;;;;5073815;28;20477;-83
2022/10/12 09:25:25;;;;;;;14.13;5.20;;;10.00;99.90;;;;;;5074715;28;20079;-81
2022/10/12 09:27:51;;;;;;;11.13;4.30;;;10.00;99.90;;;;;;5074690;28;20052;-82
2022/10/12 09:30:19;;;;;;;10.87;5.10;;;10.00;99.90;;;;;;5075040;28;20481;-78
2022/10/12 09:33:23;;;;;;;16.52;6.07;;;10.10;99.90;;;;;;5073633;28;20137;-81
2022/10/12 09:35:49;;;;;;;14.20;5.13;;;10.10;99.90;;;;;;5069035;28;20106;-81
2022/10/12 09:38:15;;;;;;;10.07;4.15;;;10.20;99.90;;;;;;5073125;28;20040;-82
2022/10/12 09:40:41;;;;;;;8.98;4.90;;;10.20;99.90;;;;;;5074252;28;20074;-81
2022/10/12 09:43:08;;;;;;;14.25;5.30;;;10.20;99.90;;;;;;5074101;28;20142;-80
2022/10/12 09:45:34;;;;;;;15.60;7.40;;;10.20;99.90;;;;;;5074415;28;20055;-79
2022/10/12 09:48:21;;;;;;;16.48;5.55;;;10.20;99.90;;;;;;5074371;28;20182;-81
2022/10/12 09:50:47;;;;;;;14.95;5.55;;;10.30;99.90;;;;;;5073716;28;20094;-80
2022/10/12 09:53:23;;;;;;;13.35;5.68;;;10.30;99.90;;;;;;5074143;28;20040;-78
2022/10/12 09:56:11;;;;;;;11.68;5.32;;;10.40;99.90;;;;;;5073893;28;20141;-80
2022/10/12 09:58:51;;;;;;;14.50;5.97;;;10.80;99.90;;;;;;5073816;28;20048;-79
2022/10/12 10:01:20;;;;;;;13.32;4.78;;;10.60;99.90;;;;;;5074115;28;20040;-75
2022/10/12 10:03:50;;;;;;;18.48;5.18;;;10.80;99.90;;;;;;5074334;28;20527;-78
2022/10/12 10:06:23;;;;;;;12.05;5.00;;;10.90;99.90;;;;;;5078087;28;20083;-78
2022/10/12 10:08:49;;;;;;;11.93;4.40;;;11.10;99.90;;;;;;5075821;28;20036;-81
2022/10/12 10:11:20;;;;;;;6.97;3.97;;;11.20;99.90;;;;;;5056119;28;20044;-81
2022/10/12 10:13:50;;;;;;;13.35;4.78;;;11.30;99.90;;;;;;5074383;28;20102;-82
2022/10/12 10:16:18;;;;;;;9.90;4.95;;;11.40;99.90;;;;;;5074041;28;20484;-80
2022/10/12 10:18:54;;;;;;;10.70;4.82;;;11.50;99.90;;;;;;5073776;28;20489;-80
2022/10/12 10:21:34;;;;;;;14.60;4.30;;;11.50;99.90;;;;;;5073886;28;20083;-82
2022/10/12 10:24:22;;;;;;;9.60;3.80;;;11.70;99.90;;;;;;5073387;28;20044;-79
2022/10/12 10:27:00;;;;;;;12.63;4.32;;;11.80;99.90;;;;;;5072736;28;20057;-79
2022/10/12 10:29:40;;;;;;;10.52;3.75;;;12.00;99.90;;;;;;5073059;28;20460;-81
2022/10/12 10:32:27;;;;;;;9.60;3.58;;;12.10;99.90;;;;;;5073692;28;20045;-80
2022/10/12 10:35:11;;;;;;;14.88;3.97;;;12.20;99.90;;;;;;5073440;28;20094;-83
2022/10/12 10:37:56;;;;;;;10.77;3.85;;;12.30;99.90;;;;;;5073558;28;20400;-81
2022/10/12 10:40:41;;;;;;;8.23;3.28;;;12.40;99.90;;;;;;5073594;28;20063;-81
2022/10/12 10:43:28;;;;;;;8.00;3.45;;;12.30;99.90;;;;;;5074075;28;20097;-82
2022/10/12 10:46:14;;;;;;;11.32;3.63;;;12.60;99.90;;;;;;5077580;28;20043;-81
2022/10/12 10:48:57;;;;;;;10.23;3.83;;;12.70;99.90;;;;;;5077454;28;20045;-80
2022/10/12 10:51:57;;;;;;;11.40;3.75;;;12.70;99.90;;;;;;5077258;28;20041;-80
2022/10/12 10:54:25;;;;;;;11.77;3.47;;;12.80;99.90;;;;;;5076430;28;20048;-78
2022/10/12 10:57:00;;;;;;;12.95;3.88;;;12.90;99.90;;;;;;5077652;28;20048;-80
2022/10/12 10:59:29;;;;;;;7.97;3.75;;;13.10;99.90;;;;;;5077401;28;20071;-78
2022/10/12 11:02:33;;;;;;;8.27;3.13;;;13.20;99.90;;;;;;5076299;28;20037;-77
2022/10/12 11:05:06;;;;;;;8.57;3.40;;;13.30;99.90;;;;;;5075868;28;20504;-76
2022/10/12 11:07:56;;;;;;;14.15;3.70;;;13.40;99.90;;;;;;5076631;28;20480;-80
2022/10/12 11:10:34;;;;;;;8.20;3.13;;;13.50;99.90;;;;;;5074100;28;20135;-80
2022/10/12 11:13:14;;;;;;;8.80;3.17;;;13.50;99.90;;;;;;5077168;28;20090;-79
2022/10/12 11:16:14;;;;;;;7.68;2.67;;;13.60;99.90;;;;;;5077334;28;20049;-79
2022/10/12 11:18:52;;;;;;;9.35;3.00;;;13.60;99.90;;;;;;5068351;28;20131;-78
2022/10/12 11:21:36;;;;;;;10.95;3.38;;;13.60;99.90;;;;;;5077036;28;20047;-80
2022/10/12 11:24:15;;;;;;;7.22;2.80;;;13.60;99.90;;;;;;5077044;28;20127;-78
2022/10/12 11:26:46;;;;;;;7.10;3.13;;;13.70;99.90;;;;;;5076871;28;20036;-79
2022/10/12 11:29:16;;;;;;;9.27;3.13;;;13.70;99.90;;;;;;5077290;28;20052;-76
2022/10/12 11:31:51;;;;;;;8.10;2.70;;;13.80;99.90;;;;;;5076749;28;20084;-80
2022/10/12 11:34:21;;;;;;;8.65;3.35;;;13.90;99.90;;;;;;5060642;28;20099;-80
2022/10/12 11:36:50;;;;;;;8.00;3.10;;;13.90;99.90;;;;;;5076795;28;20036;-78
2022/10/12 11:39:24;;;;;;;7.53;3.13;;;13.90;99.90;;;;;;5076603;28;20098;-78
2022/10/12 11:41:54;;;;;;;8.55;3.15;;;14.00;99.90;;;;;;5076705;28;20047;-79
2022/10/12 11:44:22;;;;;;;7.82;3.00;;;14.10;99.90;;;;;;5076435;28;20439;-78
2022/10/12 11:46:52;;;;;;;9.15;3.08;;;14.10;99.90;;;;;;5076511;28;20061;-79
2022/10/12 11:49:40;;;;;;;8.32;3.40;;;14.20;99.90;;;;;;5076412;28;20052;-79
2022/10/12 11:52:10;;;;;;;10.40;3.92;;;14.30;99.90;;;;;;5076409;28;20037;-81
2022/10/12 11:55:10;;;;;;;7.47;3.25;;;14.30;99.90;;;;;;5075882;28;20041;-83
2022/10/12 11:57:37;;;;;;;6.78;2.90;;;14.40;99.90;;;;;;5075742;28;20047;-77
2022/10/12 12:00:15;;;;;;;8.30;3.10;;;14.30;99.90;;;;;;5076309;28;20040;-78
2022/10/12 12:02:44;;;;;;;8.30;3.40;;;14.40;99.90;;;;;;5076968;28;20049;-76
2022/10/12 12:05:15;;;;;;;11.23;3.28;;;14.40;99.90;;;;;;5076212;28;20044;-77
2022/10/12 12:07:44;;;;;;;8.57;3.13;;;14.40;99.90;;;;;;5075348;28;20365;-79
2022/10/12 12:10:30;;;;;;;8.90;3.40;;;14.50;99.90;;;;;;5076110;28;20040;-78
2022/10/12 12:13:21;;;;;;;9.68;3.38;;;14.30;99.90;;;;;;5076015;28;20051;-81
2022/10/12 12:15:48;;;;;;;10.82;3.17;;;15.00;99.90;;;;;;5074885;28;20051;-78
2022/10/12 12:18:16;;;;;;;;;;;14.70;99.90;;;;;;5076426;28;20403;-76
2022/10/12 12:20:41;;;;;;;11.63;3.25;;;14.70;99.90;;;;;;5076452;28;20027;-83
2022/10/12 12:23:25;;;;;;;7.00;2.80;;;14.60;99.90;;;;;;5075893;28;20123;-77
2022/10/12 12:26:08;;;;;;;14.68;3.00;;;14.70;99.90;;;;;;5075899;28;20090;-79
2022/10/12 12:28:36;;;;;;;8.48;3.08;;;14.80;99.90;;;;;;5075765;28;20045;-79
2022/10/12 12:31:13;;;;;;;8.07;2.90;;;15.00;99.90;;;;;;5075497;28;20041;-77
2022/10/12 12:33:41;;;;;;;11.77;3.13;;;14.80;99.90;;;;;;5075773;28;20076;-76
2022/10/12 12:36:08;;;;;;;7.30;2.80;;;14.90;99.90;;;;;;5074385;28;20040;-79
2022/10/12 12:38:49;;;;;;;10.60;3.00;;;14.90;99.90;;;;;;5091382;28;20045;-78
2022/10/12 12:41:19;;;;;;;8.32;3.17;;;14.90;99.90;;;;;;5075562;28;20055;-80
2022/10/12 12:43:58;;;;;;;8.85;3.20;;;14.80;99.90;;;;;;5075166;28;20088;-82
2022/10/12 12:46:53;;;;;;;8.48;2.60;;;14.80;99.90;;;;;;5089809;28;20058;-79
2022/10/12 12:49:27;;;;;;;6.90;2.58;;;14.80;99.90;;;;;;5073973;28;20040;-80
2022/10/12 12:51:53;;;;;;;8.90;3.22;;;15.00;99.90;;;;;;5074078;28;20537;-79
2022/10/12 12:54:20;;;;;;;;;;;14.80;99.90;;;;;;5074207;28;20461;-80
2022/10/12 12:57:01;;;;;;;8.00;3.10;;;14.80;99.90;;;;;;5057317;28;19956;-82
2022/10/12 12:59:56;;;;;;;10.30;3.28;;;14.80;99.90;;;;;;5057301;28;20511;-78
2022/10/12 13:02:41;;;;;;;9.20;3.05;;;14.80;99.90;;;;;;5074522;28;20523;-78
2022/10/12 13:05:32;;;;;;;9.95;3.45;;;14.80;99.90;;;;;;5073862;28;20162;-79
2022/10/12 13:08:12;;;;;;;8.45;3.10;;;14.80;99.90;;;;;;5073054;28;20392;-80
2022/10/12 13:11:04;;;;;;;8.40;2.97;;;14.70;99.90;;;;;;5073580;28;20052;-80